createdAt,value
2023-05-05T00:00:15.646Z,6.18
2023-05-05T00:02:42.517Z,8.60
2023-05-05T00:05:09.300Z,7.57
2023-05-05T00:07:36.011Z,8.50
2023-05-05T00:10:02.786Z,13.13
2023-05-05T00:12:29.264Z,9.13
2023-05-05T00:14:55.903Z,7.20
2023-05-05T00:17:23.013Z,6.60
2023-05-05T00:19:49.623Z,9.00
2023-05-05T00:22:16.022Z,8.82
2023-05-05T00:24:42.888Z,6.82
2023-05-05T00:27:10.617Z,5.88
2023-05-05T00:29:37.016Z,10.50
2023-05-05T00:32:03.524Z,5.68
2023-05-05T00:34:29.963Z,6.32
2023-05-05T00:36:56.372Z,7.15
2023-05-05T00:39:22.871Z,7.80
2023-05-05T00:41:49.312Z,9.07
2023-05-05T00:44:15.782Z,8.00
2023-05-05T00:46:43.117Z,6.90
2023-05-05T00:49:09.971Z,7.03
2023-05-05T00:51:36.509Z,7.85
2023-05-05T00:54:02.998Z,12.83
2023-05-05T00:56:29.702Z,7.30
2023-05-05T00:58:56.395Z,6.15
2023-05-05T01:01:23.040Z,6.28
2023-05-05T01:03:49.575Z,8.07
2023-05-05T01:06:22.688Z,8.97
2023-05-05T01:08:54.996Z,7.07
2023-05-05T01:11:31.058Z,7.50
2023-05-05T01:14:16.629Z,7.78
2023-05-05T01:16:57.334Z,9.85
2023-05-05T01:19:58.782Z,7.93
2023-05-05T01:22:32.312Z,10.07
2023-05-05T01:25:17.816Z,9.65
2023-05-05T01:27:59.335Z,6.63
2023-05-05T01:30:49.944Z,8.73
2023-05-05T01:33:23.168Z,9.00
2023-05-05T01:35:56.630Z,11.48
2023-05-05T01:38:38.037Z,8.20
2023-05-05T01:41:12.944Z,10.70
2023-05-05T01:43:41.284Z,10.45
2023-05-05T01:46:08.605Z,8.03
2023-05-05T01:48:36.974Z,8.60
2023-05-05T01:51:04.891Z,10.80
2023-05-05T01:53:32.506Z,9.82
2023-05-05T01:55:59.562Z,10.77
2023-05-05T01:58:28.144Z,10.20
2023-05-05T02:00:57.060Z,9.40
2023-05-05T02:03:24.769Z,8.43
2023-05-05T02:05:53.804Z,8.43
2023-05-05T02:08:21.404Z,9.85
2023-05-05T02:10:49.774Z,10.50
2023-05-05T02:13:18.629Z,9.70
2023-05-05T02:15:46.360Z,8.98
2023-05-05T02:18:14.191Z,9.27
2023-05-05T02:20:41.080Z,6.75
2023-05-05T02:23:08.205Z,9.03
2023-05-05T02:25:43.318Z,8.10
2023-05-05T02:28:15.318Z,7.45
2023-05-05T02:30:43.421Z,5.95
2023-05-05T02:33:14.279Z,7.15
2023-05-05T02:35:42.252Z,8.83
2023-05-05T02:38:17.412Z,5.47
2023-05-05T02:40:45.747Z,6.07
2023-05-05T02:43:17.060Z,6.30
2023-05-05T02:45:43.869Z,3.95
2023-05-05T02:48:12.909Z,6.50
2023-05-05T02:50:39.371Z,7.18
2023-05-05T02:53:05.916Z,5.53
2023-05-05T02:55:50.262Z,6.78
2023-05-05T02:58:42.516Z,5.75
2023-05-05T03:01:15.501Z,5.67
2023-05-05T03:03:52.278Z,4.65
2023-05-05T03:06:22.091Z,4.75
2023-05-05T03:08:57.426Z,6.82
2023-05-05T03:11:47.716Z,4.25
2023-05-05T03:14:18.300Z,4.03
2023-05-05T03:16:46.286Z,4.05
2023-05-05T03:19:15.780Z,5.03
2023-05-05T03:21:42.384Z,4.97
2023-05-05T03:24:26.957Z,5.05
2023-05-05T03:26:53.773Z,4.43
2023-05-05T03:29:20.229Z,5.35
2023-05-05T03:31:46.808Z,4.13
2023-05-05T03:34:13.616Z,4.60
2023-05-05T03:36:40.556Z,8.15
2023-05-05T03:39:07.212Z,3.50
2023-05-05T03:41:34.113Z,3.03
2023-05-05T03:44:01.405Z,4.55
2023-05-05T03:46:27.887Z,4.20
2023-05-05T03:48:57.005Z,6.38
2023-05-05T03:51:24.502Z,3.23
2023-05-05T03:53:50.931Z,3.88
2023-05-05T03:56:17.333Z,3.85
2023-05-05T03:58:43.706Z,3.95
2023-05-05T04:01:10.150Z,5.35
2023-05-05T04:03:36.670Z,5.03
2023-05-05T04:06:03.242Z,3.78
2023-05-05T04:08:29.676Z,4.65
2023-05-05T04:10:57.383Z,7.90
2023-05-05T04:13:24.196Z,4.07
2023-05-05T04:15:50.986Z,5.47
2023-05-05T04:18:17.395Z,7.80
2023-05-05T04:20:43.935Z,5.00
2023-05-05T04:23:10.364Z,8.60
2023-05-05T04:25:37.145Z,6.63
2023-05-05T04:28:03.614Z,4.53
2023-05-05T04:30:30.616Z,7.80
2023-05-05T04:32:57.066Z,5.38
2023-05-05T04:35:23.593Z,5.47
2023-05-05T04:37:50.132Z,6.18
2023-05-05T04:40:16.660Z,9.70
2023-05-05T04:42:43.119Z,6.20
2023-05-05T04:45:10.179Z,5.07
2023-05-05T04:47:40.115Z,7.07
2023-05-05T04:50:08.058Z,7.53
2023-05-05T04:52:34.904Z,5.23
2023-05-05T04:55:01.398Z,5.05
2023-05-05T04:57:29.434Z,10.82
2023-05-05T04:59:55.979Z,5.38
2023-05-05T05:02:22.427Z,5.43
2023-05-05T05:04:48.890Z,6.53
2023-05-05T05:07:15.285Z,5.35
2023-05-05T05:09:41.809Z,4.47
2023-05-05T05:12:09.647Z,6.03
2023-05-05T05:14:40.156Z,6.75
2023-05-05T05:17:06.917Z,6.33
2023-05-05T05:19:33.400Z,7.30
2023-05-05T05:21:59.925Z,4.60
2023-05-05T05:24:26.459Z,7.10
2023-05-05T05:26:52.917Z,6.10
2023-05-05T05:29:20.354Z,9.03
2023-05-05T05:31:46.768Z,7.60
2023-05-05T05:34:15.433Z,8.93
2023-05-05T05:36:41.835Z,8.40
2023-05-05T05:39:08.350Z,5.25
2023-05-05T05:41:34.798Z,11.77
2023-05-05T05:44:01.197Z,13.30
2023-05-05T05:46:27.661Z,12.98
2023-05-05T05:48:54.110Z,10.63
2023-05-05T05:51:20.562Z,8.43
2023-05-05T05:53:47.044Z,7.47
2023-05-05T05:56:13.575Z,7.13
2023-05-05T05:58:40.571Z,6.00
2023-05-05T06:01:07.078Z,10.68
2023-05-05T06:03:33.541Z,7.28
2023-05-05T06:06:00.039Z,7.67
2023-05-05T06:08:26.845Z,9.93
2023-05-05T06:10:53.318Z,9.43
2023-05-05T06:13:19.851Z,7.53
2023-05-05T06:15:46.338Z,10.45
2023-05-05T06:18:12.837Z,6.70
2023-05-05T06:20:39.372Z,6.40
2023-05-05T06:23:05.986Z,6.85
2023-05-05T06:25:32.387Z,7.97
2023-05-05T06:27:58.807Z,8.07
2023-05-05T06:30:26.238Z,6.77
2023-05-05T06:32:54.257Z,6.68
2023-05-05T06:35:22.395Z,7.95
2023-05-05T06:37:48.792Z,11.45
2023-05-05T06:40:15.220Z,6.80
2023-05-05T06:42:41.842Z,10.83
2023-05-05T06:45:08.876Z,4.97
2023-05-05T06:47:36.014Z,5.53
2023-05-05T06:50:02.459Z,8.45
2023-05-05T06:52:28.861Z,5.18
2023-05-05T06:54:55.418Z,4.30
2023-05-05T06:57:21.851Z,5.25
2023-05-05T06:59:48.381Z,4.00
2023-05-05T07:02:15.185Z,4.85
2023-05-05T07:04:41.605Z,5.45
2023-05-05T07:07:08.072Z,7.83
2023-05-05T07:09:34.500Z,5.43
2023-05-05T07:12:00.994Z,7.65
2023-05-05T07:14:27.897Z,6.07
2023-05-05T07:16:54.463Z,4.45
2023-05-05T07:19:20.990Z,5.20
2023-05-05T07:21:47.703Z,6.60
2023-05-05T07:24:14.176Z,5.40
2023-05-05T07:26:40.839Z,5.72
2023-05-05T07:29:07.277Z,5.30
2023-05-05T07:31:33.887Z,4.43
2023-05-05T07:34:00.343Z,5.20
2023-05-05T07:36:27.883Z,6.10
2023-05-05T07:38:54.795Z,5.10
2023-05-05T07:41:21.281Z,5.22
2023-05-05T07:43:47.944Z,5.47
2023-05-05T07:46:14.806Z,4.38
2023-05-05T07:48:41.894Z,4.38
2023-05-05T07:51:09.261Z,6.25
2023-05-05T07:53:35.757Z,4.95
2023-05-05T07:56:02.456Z,8.33
2023-05-05T07:58:28.892Z,5.18
2023-05-05T08:00:55.644Z,4.38
2023-05-05T08:03:24.514Z,4.25
2023-05-05T08:05:54.066Z,4.43
2023-05-05T08:08:24.313Z,6.00
2023-05-05T08:10:51.849Z,7.35
2023-05-05T08:13:18.314Z,4.95
2023-05-05T08:15:45.332Z,4.88
2023-05-05T08:18:11.810Z,3.00
2023-05-05T08:20:38.383Z,4.43
2023-05-05T08:23:05.217Z,6.40
2023-05-05T08:25:31.701Z,4.03
2023-05-05T08:27:58.122Z,4.78
2023-05-05T08:30:24.559Z,5.68
2023-05-05T08:32:51.081Z,3.27
2023-05-05T08:35:17.776Z,2.75
2023-05-05T08:37:44.286Z,4.50
2023-05-05T08:40:14.399Z,3.70
2023-05-05T08:42:42.024Z,5.20
2023-05-05T08:45:11.523Z,5.63
2023-05-05T08:47:39.214Z,2.83
2023-05-05T08:50:06.267Z,2.22
2023-05-05T08:52:40.260Z,5.28
2023-05-05T08:55:24.056Z,4.72
2023-05-05T08:57:58.221Z,2.97
2023-05-05T09:00:26.961Z,2.60
2023-05-05T09:02:57.462Z,3.47
2023-05-05T09:05:24.857Z,5.65
2023-05-05T09:07:52.135Z,2.30
2023-05-05T09:10:18.992Z,4.33
2023-05-05T09:12:45.600Z,3.47
2023-05-05T09:15:14.337Z,7.40
2023-05-05T09:17:41.750Z,5.90
2023-05-05T09:20:10.319Z,6.10
2023-05-05T09:22:42.132Z,3.90
2023-05-05T09:25:11.054Z,3.33
2023-05-05T09:27:42.871Z,4.10
2023-05-05T09:30:12.739Z,10.90
2023-05-05T09:32:51.381Z,3.80
2023-05-05T09:35:19.492Z,6.33
2023-05-05T09:37:46.357Z,4.20
2023-05-05T09:40:15.208Z,5.03
2023-05-05T09:42:41.635Z,6.53
2023-05-05T09:45:27.529Z,2.22
2023-05-05T09:47:59.190Z,6.43
2023-05-05T09:50:30.320Z,4.93
2023-05-05T09:53:03.058Z,2.63
2023-05-05T09:55:31.296Z,3.50
2023-05-05T09:58:16.640Z,7.75
2023-05-05T10:00:43.215Z,4.87
2023-05-05T10:03:09.690Z,6.32
2023-05-05T10:05:50.700Z,5.15
2023-05-05T10:08:19.484Z,2.67
2023-05-05T10:11:06.691Z,5.90
2023-05-05T10:13:37.710Z,6.57
2023-05-05T10:16:08.312Z,6.15
2023-05-05T10:18:35.605Z,1.75
2023-05-05T10:21:04.169Z,4.30
2023-05-05T10:23:57.864Z,4.82
2023-05-05T10:26:27.512Z,3.30
2023-05-05T10:29:01.597Z,6.38
2023-05-05T10:31:45.509Z,3.97
2023-05-05T10:34:37.949Z,6.38
2023-05-05T10:37:06.681Z,5.25
2023-05-05T10:39:36.592Z,3.53
2023-05-05T10:42:03.449Z,4.45
2023-05-05T10:44:32.406Z,3.45
2023-05-05T10:47:00.248Z,1.17
2023-05-05T10:49:40.634Z,0.88
2023-05-05T10:52:17.333Z,0.67
2023-05-05T10:55:09.210Z,1.10
2023-05-05T10:57:40.456Z,2.17
2023-05-05T11:00:08.793Z,7.85
2023-05-05T11:02:36.199Z,2.38
2023-05-05T11:05:18.073Z,1.83
2023-05-05T11:07:46.357Z,5.97
2023-05-05T11:10:15.063Z,5.85
2023-05-05T11:12:54.024Z,2.95
2023-05-05T11:15:29.977Z,5.18
2023-05-05T11:17:57.394Z,2.67
2023-05-05T11:20:36.757Z,1.88
2023-05-05T11:23:03.260Z,1.58
2023-05-05T11:25:40.569Z,5.70
2023-05-05T11:28:17.281Z,2.55
2023-05-05T11:30:55.935Z,3.43
2023-05-05T11:33:36.991Z,4.35
2023-05-05T11:36:08.606Z,1.35
2023-05-05T11:38:40.781Z,2.72
2023-05-05T11:41:10.182Z,3.47
2023-05-05T11:43:36.650Z,4.87
2023-05-05T11:46:13.055Z,2.88
2023-05-05T11:48:54.520Z,4.68
2023-05-05T11:51:22.144Z,4.68
2023-05-05T11:53:49.871Z,6.97
2023-05-05T11:56:21.834Z,3.90
2023-05-05T11:58:49.619Z,5.05
2023-05-05T12:01:16.657Z,4.25
2023-05-05T12:03:45.321Z,8.82
2023-05-05T12:06:13.137Z,6.63
2023-05-05T12:08:40.779Z,4.60
2023-05-05T12:11:09.301Z,3.80
2023-05-05T12:13:35.733Z,5.45
2023-05-05T12:16:12.759Z,4.03
2023-05-05T12:18:39.876Z,5.07
2023-05-05T12:21:19.520Z,4.03
2023-05-05T12:23:46.425Z,3.38
2023-05-05T12:26:34.916Z,3.03
2023-05-05T12:29:01.610Z,3.25
2023-05-05T12:31:37.340Z,3.45
2023-05-05T12:34:04.837Z,3.93
2023-05-05T12:36:33.653Z,4.55
2023-05-05T12:39:00.412Z,3.25
2023-05-05T12:41:27.172Z,3.03
2023-05-05T12:43:58.466Z,4.32
2023-05-05T12:46:32.195Z,4.40
2023-05-05T12:49:06.520Z,2.28
2023-05-05T12:51:34.395Z,1.88
2023-05-05T12:54:08.087Z,3.42
2023-05-05T12:56:45.908Z,2.33
2023-05-05T12:59:29.247Z,4.03
2023-05-05T13:01:57.398Z,4.85
2023-05-05T13:04:25.793Z,3.47
2023-05-05T13:07:09.934Z,4.57
2023-05-05T13:09:36.790Z,5.13
2023-05-05T13:12:04.379Z,5.70
2023-05-05T13:14:34.847Z,4.63
2023-05-05T13:17:01.298Z,3.78
2023-05-05T13:19:27.789Z,3.88
2023-05-05T13:21:55.398Z,3.63
2023-05-05T13:24:34.307Z,2.90
2023-05-05T13:27:09.313Z,5.03
2023-05-05T13:29:35.822Z,4.97
2023-05-05T13:32:02.261Z,4.75
2023-05-05T13:34:29.102Z,2.72
2023-05-05T13:36:56.285Z,3.83
2023-05-05T13:39:22.805Z,3.28
2023-05-05T13:41:49.386Z,4.78
2023-05-05T13:44:15.994Z,3.55
2023-05-05T13:46:42.945Z,5.15
2023-05-05T13:49:09.406Z,3.03
2023-05-05T13:51:36.890Z,5.85
2023-05-05T13:54:03.928Z,2.50
2023-05-05T13:56:30.475Z,3.30
2023-05-05T13:58:57.303Z,3.97
2023-05-05T14:01:23.808Z,2.03
2023-05-05T14:03:50.561Z,3.70
2023-05-05T14:06:17.120Z,3.28
2023-05-05T14:08:43.584Z,2.05
2023-05-05T14:11:10.100Z,3.20
2023-05-05T14:13:36.629Z,2.53
2023-05-05T14:16:03.048Z,1.90
2023-05-05T14:18:29.690Z,2.40
2023-05-05T14:20:56.203Z,1.90
2023-05-05T14:23:22.679Z,4.03
2023-05-05T14:25:49.125Z,1.37
2023-05-05T14:28:16.072Z,2.03
2023-05-05T14:30:42.486Z,3.78
2023-05-05T14:33:08.933Z,3.35
2023-05-05T14:35:35.469Z,2.45
2023-05-05T14:38:01.876Z,0.80
2023-05-05T14:40:29.477Z,0.80
2023-05-05T14:42:55.949Z,1.30
2023-05-05T14:45:22.424Z,1.00
2023-05-05T14:47:48.952Z,1.08
2023-05-05T14:50:15.709Z,5.93
2023-05-05T14:52:44.435Z,3.13
2023-05-05T14:55:11.499Z,5.30
2023-05-05T14:57:38.847Z,1.20
2023-05-05T15:00:06.900Z,2.40
2023-05-05T15:05:00.286Z,1.05
2023-05-05T15:07:28.738Z,0.73
2023-05-05T15:09:58.701Z,0.80
2023-05-05T15:12:26.222Z,2.85
2023-05-05T15:14:52.751Z,1.53
2023-05-05T15:17:19.305Z,1.60
2023-05-05T15:19:46.130Z,1.40
2023-05-05T15:22:12.536Z,2.20
2023-05-05T15:24:39.036Z,0.98
2023-05-05T15:27:05.493Z,1.90
2023-05-05T15:29:32.241Z,3.83
2023-05-05T15:31:58.791Z,4.50
2023-05-05T15:34:26.168Z,2.13
2023-05-05T15:36:52.708Z,1.55
2023-05-05T15:39:19.250Z,5.17
2023-05-05T15:41:45.648Z,5.28
2023-05-05T15:44:12.543Z,1.83
2023-05-05T15:46:39.729Z,2.00
2023-05-05T15:49:06.297Z,0.80
2023-05-05T15:51:32.747Z,2.90
2023-05-05T15:53:59.570Z,2.05
2023-05-05T15:56:27.518Z,1.15
2023-05-05T15:58:54.348Z,2.20
2023-05-05T16:01:21.016Z,1.63
2023-05-05T16:03:47.512Z,1.00
2023-05-05T16:06:14.010Z,1.50
2023-05-05T16:08:41.093Z,1.38
2023-05-05T16:11:07.585Z,1.08
2023-05-05T16:13:34.058Z,1.52
2023-05-05T16:16:00.465Z,1.27
2023-05-05T16:18:26.918Z,1.75
2023-05-05T16:20:53.308Z,1.00
2023-05-05T16:23:19.874Z,1.88
2023-05-05T16:25:46.421Z,0.75
2023-05-05T16:28:12.964Z,1.63
2023-05-05T16:30:39.909Z,1.65
2023-05-05T16:33:06.840Z,1.27
2023-05-05T16:35:33.423Z,2.10
2023-05-05T16:37:59.871Z,2.15
2023-05-05T16:40:26.576Z,0.80
2023-05-05T16:42:53.003Z,2.17
2023-05-05T16:45:19.445Z,1.10
2023-05-05T16:47:45.902Z,1.83
2023-05-05T16:50:12.394Z,1.10
2023-05-05T16:52:38.788Z,1.67
2023-05-05T16:55:05.484Z,2.00
2023-05-05T16:57:32.007Z,1.63
2023-05-05T16:59:58.499Z,2.88
2023-05-05T17:02:24.953Z,1.83
2023-05-05T17:04:51.399Z,0.93
2023-05-05T17:07:17.778Z,0.70
2023-05-05T17:09:44.916Z,0.80
2023-05-05T17:12:11.400Z,1.30
2023-05-05T17:14:38.422Z,1.10
2023-05-05T17:17:05.083Z,0.63
2023-05-05T17:19:31.587Z,0.52
2023-05-05T17:21:57.997Z,1.25
2023-05-05T17:24:24.399Z,0.55
2023-05-05T17:26:50.954Z,1.50
2023-05-05T17:29:21.490Z,0.70
2023-05-05T17:31:48.030Z,0.40
2023-05-05T17:34:14.413Z,4.18
2023-05-05T17:36:41.169Z,0.60
2023-05-05T17:39:07.927Z,2.25
2023-05-05T17:41:34.455Z,0.40
2023-05-05T17:44:00.826Z,1.25
2023-05-05T17:46:27.797Z,0.30
2023-05-05T17:48:54.870Z,0.40
2023-05-05T17:51:21.676Z,1.15
2023-05-05T17:53:48.079Z,1.73
2023-05-05T17:56:14.459Z,0.65
2023-05-05T17:58:41.268Z,2.15
2023-05-05T18:01:07.814Z,1.30
2023-05-05T18:03:34.406Z,1.88
2023-05-05T18:06:02.256Z,1.07
2023-05-05T18:08:28.739Z,0.85
2023-05-05T18:10:55.168Z,0.60
2023-05-05T18:13:21.766Z,2.55
2023-05-05T18:15:48.216Z,3.30
2023-05-05T18:18:14.719Z,4.03
2023-05-05T18:20:41.188Z,0.90
2023-05-05T18:23:07.570Z,1.98
2023-05-05T18:25:33.964Z,1.95
2023-05-05T18:28:00.435Z,1.80
2023-05-05T18:30:26.864Z,0.40
2023-05-05T18:32:53.340Z,1.80
2023-05-05T18:35:19.837Z,1.88
2023-05-05T18:37:46.255Z,1.25
2023-05-05T18:40:12.970Z,1.63
2023-05-05T18:42:39.468Z,1.50
2023-05-05T18:45:06.501Z,2.17
2023-05-05T18:47:33.785Z,0.90
2023-05-05T18:50:00.220Z,0.80
2023-05-05T18:52:27.392Z,1.33
2023-05-05T18:54:53.809Z,0.93
2023-05-05T18:57:20.188Z,2.95
2023-05-05T18:59:46.635Z,1.02
2023-05-05T19:02:13.292Z,4.95
2023-05-05T19:04:41.314Z,3.75
2023-05-05T19:07:07.821Z,1.33
2023-05-05T19:09:34.399Z,1.17
2023-05-05T19:12:02.365Z,1.40
2023-05-05T19:14:28.888Z,2.92
2023-05-05T19:17:01.652Z,2.83
2023-05-05T19:19:28.132Z,1.97
2023-05-05T19:21:54.862Z,5.97
2023-05-05T19:24:21.348Z,2.35
2023-05-05T19:26:47.738Z,3.47
2023-05-05T19:29:14.303Z,1.05
2023-05-05T19:31:40.704Z,2.60
2023-05-05T19:34:07.470Z,1.98
2023-05-05T19:36:34.641Z,2.00
2023-05-05T19:39:02.279Z,1.58
2023-05-05T19:41:29.898Z,2.75
2023-05-05T19:43:57.307Z,3.53
2023-05-05T19:46:26.313Z,1.88
2023-05-05T19:48:52.962Z,1.58
2023-05-05T19:51:19.497Z,3.53
2023-05-05T19:53:45.960Z,1.75
2023-05-05T19:56:12.396Z,1.27
2023-05-05T19:59:01.678Z,1.77
2023-05-05T20:01:29.402Z,2.70
2023-05-05T20:03:56.546Z,2.25
2023-05-05T20:06:24.234Z,1.40
2023-05-05T20:08:50.879Z,2.40
2023-05-05T20:11:17.654Z,2.60
2023-05-05T20:13:44.226Z,1.98
2023-05-05T20:16:10.779Z,1.90
2023-05-05T20:18:37.255Z,2.05
2023-05-05T20:21:03.716Z,2.00
2023-05-05T20:23:30.390Z,2.30
2023-05-05T20:25:57.227Z,2.40
2023-05-05T20:28:23.853Z,4.22
2023-05-05T20:30:50.276Z,3.05
2023-05-05T20:33:16.648Z,4.73
2023-05-05T20:35:43.126Z,1.92
2023-05-05T20:38:10.086Z,3.00
2023-05-05T20:40:36.838Z,4.90
2023-05-05T20:43:03.277Z,2.42
2023-05-05T20:45:31.664Z,2.40
2023-05-05T20:48:00.013Z,4.03
2023-05-05T20:50:26.602Z,4.60
2023-05-05T20:52:53.020Z,2.28
2023-05-05T20:55:19.586Z,2.88
2023-05-05T20:57:46.289Z,3.17
2023-05-05T21:00:12.963Z,2.83
2023-05-05T21:02:39.497Z,2.85
2023-05-05T21:05:06.501Z,4.68
2023-05-05T21:07:35.949Z,4.38
2023-05-05T21:10:03.695Z,3.63
2023-05-05T21:12:30.669Z,3.40
2023-05-05T21:14:58.744Z,5.25
2023-05-05T21:17:26.281Z,4.13
2023-05-05T21:19:53.224Z,3.00
2023-05-05T21:22:20.733Z,2.90
2023-05-05T21:24:47.389Z,4.55
2023-05-05T21:27:13.924Z,3.45
2023-05-05T21:29:40.812Z,2.53
2023-05-05T21:32:08.664Z,4.93
2023-05-05T21:34:35.525Z,2.40
2023-05-05T21:37:02.284Z,4.93
2023-05-05T21:39:30.545Z,4.30
2023-05-05T21:41:57.018Z,4.35
2023-05-05T21:44:25.405Z,3.20
2023-05-05T21:46:55.517Z,3.87
2023-05-05T21:49:21.987Z,4.70
2023-05-05T21:51:48.742Z,4.47
2023-05-05T21:54:15.443Z,3.95
2023-05-05T21:56:41.855Z,3.38
2023-05-05T21:59:08.291Z,5.60
2023-05-05T22:01:35.086Z,4.22
2023-05-05T22:04:01.685Z,3.05
2023-05-05T22:06:28.149Z,3.45
2023-05-05T22:08:54.674Z,4.10
2023-05-05T22:11:21.312Z,3.17
2023-05-05T22:13:47.809Z,3.13
2023-05-05T22:16:18.609Z,3.67
2023-05-05T22:18:46.111Z,3.65
2023-05-05T22:21:12.649Z,3.55
2023-05-05T22:23:41.380Z,3.00
2023-05-05T22:26:08.738Z,4.70
2023-05-05T22:28:35.399Z,4.38
2023-05-05T22:31:02.511Z,5.35
2023-05-05T22:33:29.010Z,3.95
2023-05-05T22:35:55.724Z,3.90
2023-05-05T22:38:22.252Z,7.90
2023-05-05T22:40:48.743Z,4.60
2023-05-05T22:43:15.367Z,3.50
2023-05-05T22:45:42.997Z,4.43
2023-05-05T22:48:09.541Z,3.77
2023-05-05T22:50:36.076Z,4.28
2023-05-05T22:53:02.463Z,4.50
2023-05-05T22:55:28.923Z,3.47
2023-05-05T22:57:55.421Z,4.10
2023-05-05T23:00:21.912Z,4.43
2023-05-05T23:02:48.448Z,4.05
2023-05-05T23:05:14.909Z,3.20
2023-05-05T23:07:41.303Z,3.97
2023-05-05T23:10:08.745Z,4.97
2023-05-05T23:12:35.578Z,4.63
2023-05-05T23:15:02.201Z,6.55
2023-05-05T23:17:28.695Z,3.58
2023-05-05T23:19:55.154Z,3.10
2023-05-05T23:22:21.522Z,4.97
2023-05-05T23:24:48.025Z,4.80
2023-05-05T23:27:14.416Z,4.18
2023-05-05T23:29:40.818Z,4.22
2023-05-05T23:32:07.711Z,3.80
2023-05-05T23:34:34.078Z,4.88
2023-05-05T23:37:00.497Z,4.53
2023-05-05T23:39:26.899Z,5.32
2023-05-05T23:41:53.298Z,6.68
2023-05-05T23:44:19.743Z,5.10
2023-05-05T23:46:46.521Z,8.00
2023-05-05T23:49:13.010Z,5.60
2023-05-05T23:51:39.391Z,10.02
2023-05-05T23:54:05.940Z,5.72
2023-05-05T23:56:32.426Z,5.72
2023-05-05T23:58:58.851Z,6.57
